Beyersville, Texas
Current Conditions -  °F | °C
As of 12:55 AM on Wednesday 22 Oct 2014 (Local Time) from KGRK Reporting Station
Broken Clouds Broken Clouds  
Wind Chill: 70°   Ceiling: 20000
Heat Index: 70°   Visibility: 7mi
Dew Point: 55°   Wind: 7mph
Humidity: 60%   Direction: 110°ESE
Pressure: 30.06"   Gusts: NA
Location:  30.5365°N, 97.3104°W
Report Text: KGRK 220555Z 11006KT 7SM BKN200 21/13 A3006 RMK SLP176 50000
Loading
Personal Weather Stations






























Interactive Weather Map
Tropical Storm Tracking
New forecast layout! Learn more

10-Day Weather Forecast

Advertisements
Track Severe Weather on mobile